createdAt,value
2018-11-13T00:00:28.219Z,99669.24
2018-11-13T00:02:56.774Z,99662.42
2018-11-13T00:05:25.629Z,99658.98
2018-11-13T00:07:54.293Z,99654.56
2018-11-13T00:10:23.244Z,99657.28
2018-11-13T00:12:51.939Z,99658.61
2018-11-13T00:15:20.748Z,99650.56
2018-11-13T00:17:49.098Z,99644.13
2018-11-13T00:20:18.482Z,99635.31
2018-11-13T00:22:46.853Z,99631.62
2018-11-13T00:25:16.232Z,99642.22
2018-11-13T00:27:44.824Z,99643.16
2018-11-13T00:30:15.536Z,99644.69
2018-11-13T00:32:44.787Z,99649.41
2018-11-13T00:35:15.569Z,99639.66
2018-11-13T00:37:44.424Z,99643.37
2018-11-13T00:40:14.685Z,99640.51
2018-11-13T00:42:43.996Z,99638.81
2018-11-13T00:45:13.408Z,99636.63
2018-11-13T00:47:41.752Z,99640.70
2018-11-13T00:50:11.678Z,99651.73
2018-11-13T00:52:40.354Z,99669.44
2018-11-13T00:55:08.920Z,99679.61
2018-11-13T00:57:38.319Z,99687.74
2018-11-13T01:00:10.305Z,99696.39
2018-11-13T01:02:38.574Z,99698.38
2018-11-13T01:05:09.037Z,99695.35
2018-11-13T01:07:37.808Z,99704.72
2018-11-13T01:10:07.459Z,99709.66
2018-11-13T01:12:35.833Z,99720.74
2018-11-13T01:15:04.166Z,99717.81
2018-11-13T01:17:32.780Z,99725.11
2018-11-13T01:20:01.172Z,99716.67
2018-11-13T01:22:29.604Z,99717.04
2018-11-13T01:24:58.655Z,99711.45
2018-11-13T01:27:27.259Z,99717.80
2018-11-13T01:29:55.468Z,99723.61
2018-11-13T01:32:24.559Z,99726.83
2018-11-13T01:34:53.007Z,99740.97
2018-11-13T01:37:21.379Z,99739.44
2018-11-13T01:39:49.644Z,99736.70
2018-11-13T01:42:17.891Z,99735.73
2018-11-13T01:44:46.107Z,99734.61
2018-11-13T01:47:14.401Z,99740.15
2018-11-13T01:49:42.673Z,99739.34
2018-11-13T01:52:10.915Z,99748.17
2018-11-13T01:54:39.195Z,99743.50
2018-11-13T01:57:07.457Z,99747.38
2018-11-13T01:59:35.751Z,99733.55
2018-11-13T02:02:04.281Z,99728.73
2018-11-13T02:04:33.094Z,99726.91
2018-11-13T02:07:01.293Z,99711.47
2018-11-13T02:09:29.482Z,99706.99
2018-11-13T02:11:57.778Z,99705.77
2018-11-13T02:14:25.970Z,99697.34
2018-11-13T02:16:54.167Z,99697.47
2018-11-13T02:19:22.515Z,99692.89
2018-11-13T02:21:50.800Z,99693.92
2018-11-13T02:24:19.093Z,99698.38
2018-11-13T02:26:47.363Z,99701.02
2018-11-13T02:29:16.295Z,99703.67
2018-11-13T02:31:44.514Z,99720.77
2018-11-13T02:34:12.692Z,99720.30
2018-11-13T02:36:40.879Z,99720.76
2018-11-13T02:39:10.786Z,99715.25
2018-11-13T02:41:39.127Z,99717.63
2018-11-13T02:44:07.656Z,99722.27
2018-11-13T02:46:36.061Z,99749.10
2018-11-13T02:49:04.656Z,99757.83
2018-11-13T02:51:32.863Z,99769.52
2018-11-13T02:54:01.084Z,99780.77
2018-11-13T02:56:29.275Z,99775.46
2018-11-13T02:58:57.575Z,99773.47
2018-11-13T03:01:25.800Z,99778.55
2018-11-13T03:03:53.980Z,99768.79
2018-11-13T03:06:22.170Z,99774.72
2018-11-13T03:08:50.364Z,99787.53
2018-11-13T03:11:18.668Z,99779.91
2018-11-13T03:13:46.969Z,99767.16
2018-11-13T03:16:15.175Z,99761.69
2018-11-13T03:18:43.488Z,99758.53
2018-11-13T03:21:11.714Z,99772.53
2018-11-13T03:23:39.909Z,99772.47
2018-11-13T03:26:08.382Z,99770.64
2018-11-13T03:28:36.776Z,99774.16
2018-11-13T03:31:05.169Z,99767.63
2018-11-13T03:33:33.365Z,99760.16
2018-11-13T03:36:01.563Z,99765.27
2018-11-13T03:38:29.755Z,99779.61
2018-11-13T03:40:58.032Z,99762.91
2018-11-13T03:43:26.231Z,99769.22
2018-11-13T03:45:54.563Z,99768.73
2018-11-13T03:48:22.819Z,99764.41
2018-11-13T03:50:51.022Z,99756.34
2018-11-13T03:53:19.238Z,99754.45
2018-11-13T03:55:47.407Z,99761.02
2018-11-13T03:58:15.631Z,99775.76
2018-11-13T04:00:43.832Z,99783.19
2018-11-13T04:03:12.029Z,99778.14
2018-11-13T04:05:40.312Z,99786.08
2018-11-13T04:08:08.604Z,99787.08
2018-11-13T04:10:40.217Z,99793.15
2018-11-13T04:13:08.508Z,99798.99
2018-11-13T04:15:36.701Z,99799.09
2018-11-13T04:18:05.088Z,99800.89
2018-11-13T04:20:33.294Z,99810.08
2018-11-13T04:23:02.411Z,99817.42
2018-11-13T04:25:30.598Z,99813.34
2018-11-13T04:27:58.797Z,99816.19
2018-11-13T04:30:27.134Z,99813.59
2018-11-13T04:32:55.273Z,99820.14
2018-11-13T04:35:23.486Z,99818.55
2018-11-13T04:37:51.791Z,99832.49
2018-11-13T04:40:20.863Z,99830.80
2018-11-13T04:42:50.256Z,99827.84
2018-11-13T04:45:20.163Z,99826.62
2018-11-13T04:47:49.078Z,99828.05
2018-11-13T04:50:18.151Z,99834.12
2018-11-13T04:52:46.383Z,99823.39
2018-11-13T04:55:14.913Z,99828.05
2018-11-13T04:57:43.957Z,99826.41
2018-11-13T05:00:16.892Z,99831.46
2018-11-13T05:02:45.907Z,99842.66
2018-11-13T05:05:15.076Z,99838.47
2018-11-13T05:07:45.518Z,99842.75
2018-11-13T05:10:13.839Z,99834.65
2018-11-13T05:12:43.199Z,99831.33
2018-11-13T05:15:11.552Z,99829.44
2018-11-13T05:17:40.655Z,99839.19
2018-11-13T05:20:09.665Z,99858.84
2018-11-13T05:22:37.856Z,99862.53
2018-11-13T05:25:09.077Z,99862.63
2018-11-13T05:27:37.460Z,99866.30
2018-11-13T05:30:07.343Z,99861.86
2018-11-13T05:32:35.548Z,99860.17
2018-11-13T05:35:03.867Z,99862.27
2018-11-13T05:37:32.066Z,99853.38
2018-11-13T05:40:00.287Z,99842.51
2018-11-13T05:42:28.580Z,99858.99
2018-11-13T05:44:56.831Z,99860.18
2018-11-13T05:47:25.698Z,99846.22
2018-11-13T05:49:53.871Z,99859.13
2018-11-13T05:52:22.063Z,99849.81
2018-11-13T05:54:50.292Z,99873.81
2018-11-13T05:57:18.491Z,99882.77
2018-11-13T05:59:47.919Z,99890.30
2018-11-13T06:02:16.098Z,99880.00
2018-11-13T06:04:44.278Z,99889.39
2018-11-13T06:07:12.477Z,99886.17
2018-11-13T06:09:40.668Z,99887.48
2018-11-13T06:12:09.782Z,99895.94
2018-11-13T06:14:37.976Z,99905.77
2018-11-13T06:17:06.163Z,99903.64
2018-11-13T06:19:34.463Z,99895.25
2018-11-13T06:22:02.733Z,99909.64
2018-11-13T06:24:30.916Z,99906.41
2018-11-13T06:26:59.111Z,99914.18
2018-11-13T06:29:27.325Z,99910.70
2018-11-13T06:31:55.558Z,99911.93
2018-11-13T06:34:23.743Z,99910.14
2018-11-13T06:36:51.928Z,99906.50
2018-11-13T06:39:20.112Z,99919.56
2018-11-13T06:41:48.415Z,99919.56
2018-11-13T06:44:16.610Z,99931.16
2018-11-13T06:46:44.796Z,99942.70
2018-11-13T06:49:13.004Z,99954.44
2018-11-13T06:51:41.220Z,99960.52
2018-11-13T06:54:20.683Z,99966.47
2018-11-13T06:56:48.951Z,99972.27
2018-11-13T06:59:17.234Z,99975.07
2018-11-13T07:01:45.424Z,99983.84
2018-11-13T07:04:14.839Z,99982.69
2018-11-13T07:06:43.017Z,99991.06
2018-11-13T07:09:11.395Z,99988.50
2018-11-13T07:11:39.968Z,99997.73
2018-11-13T07:14:08.176Z,99999.96
2018-11-13T07:16:36.375Z,100008.08
2018-11-13T07:19:04.880Z,100001.34
2018-11-13T07:21:33.822Z,100004.56
2018-11-13T07:24:02.112Z,100010.83
2018-11-13T07:26:30.779Z,100014.63
2018-11-13T07:28:59.244Z,100024.20
2018-11-13T07:31:27.467Z,100033.67
2018-11-13T07:33:55.672Z,100038.86
2018-11-13T07:36:23.887Z,100035.53
2018-11-13T07:38:52.446Z,100039.75
2018-11-13T07:41:20.826Z,100051.42
2018-11-13T07:43:49.020Z,100057.72
2018-11-13T07:46:17.336Z,100051.10
2018-11-13T07:48:45.755Z,100056.39
2018-11-13T07:51:14.004Z,100052.17
2018-11-13T07:53:42.278Z,100050.82
2018-11-13T07:56:22.590Z,100051.13
2018-11-13T07:58:50.967Z,100058.50
2018-11-13T08:01:19.167Z,100060.17
2018-11-13T08:03:47.385Z,100061.61
2018-11-13T08:06:15.696Z,100066.60
2018-11-13T08:08:43.898Z,100076.00
2018-11-13T08:11:12.159Z,100075.63
2018-11-13T08:13:40.999Z,100078.11
2018-11-13T08:16:09.111Z,100079.19
2018-11-13T08:18:37.300Z,100080.77
2018-11-13T08:21:05.569Z,100085.95
2018-11-13T08:23:33.719Z,100087.90
2018-11-13T08:26:02.011Z,100091.36
2018-11-13T08:28:30.243Z,100092.27
2018-11-13T08:30:58.435Z,100100.30
2018-11-13T08:33:26.904Z,100109.31
2018-11-13T08:35:55.224Z,100105.63
2018-11-13T08:38:23.516Z,100104.98
2018-11-13T08:40:52.852Z,100116.03
2018-11-13T08:43:21.040Z,100119.68
2018-11-13T08:45:49.231Z,100123.22
2018-11-13T08:48:17.467Z,100122.55
2018-11-13T08:50:45.734Z,100126.44
2018-11-13T08:53:17.799Z,100122.34
2018-11-13T08:55:46.721Z,100129.86
2018-11-13T08:58:14.920Z,100127.99
2018-11-13T09:00:43.106Z,100130.46
2018-11-13T09:03:11.400Z,100132.64
2018-11-13T09:05:39.603Z,100136.22
2018-11-13T09:08:07.815Z,100135.45
2018-11-13T09:10:36.011Z,100140.30
2018-11-13T09:13:04.208Z,100136.31
2018-11-13T09:15:32.873Z,100138.87
2018-11-13T09:18:01.165Z,100150.03
2018-11-13T09:20:29.323Z,100155.59
2018-11-13T09:22:57.561Z,100161.75
2018-11-13T09:25:26.927Z,100165.73
2018-11-13T09:27:55.119Z,100162.63
2018-11-13T09:30:23.522Z,100166.73
2018-11-13T09:32:51.701Z,100171.28
2018-11-13T09:35:20.144Z,100170.62
2018-11-13T09:37:48.719Z,100177.12
2018-11-13T09:40:19.075Z,100186.13
2018-11-13T09:42:48.459Z,100188.89
2018-11-13T09:45:17.099Z,100193.13
2018-11-13T09:47:45.370Z,100192.21
2018-11-13T09:50:15.230Z,100195.53
2018-11-13T09:52:44.796Z,100190.38
2018-11-13T09:55:14.451Z,100192.20
2018-11-13T09:57:42.651Z,100197.69
2018-11-13T10:00:15.402Z,100196.61
2018-11-13T10:02:45.876Z,100209.42
2018-11-13T10:05:14.073Z,100217.75
2018-11-13T10:07:42.404Z,100217.49
2018-11-13T10:10:11.517Z,100216.58
2018-11-13T10:12:39.664Z,100218.16
2018-11-13T10:15:11.196Z,100221.02
2018-11-13T10:17:39.697Z,100219.61
2018-11-13T10:20:08.894Z,100218.02
2018-11-13T10:22:37.083Z,100226.34
2018-11-13T10:25:06.271Z,100223.52
2018-11-13T10:27:34.509Z,100223.43
2018-11-13T10:30:02.703Z,100227.72
2018-11-13T10:32:31.004Z,100232.45
2018-11-13T10:34:59.228Z,100225.59
2018-11-13T10:37:27.430Z,100228.58
2018-11-13T10:39:55.632Z,100224.88
2018-11-13T10:42:23.928Z,100223.55
2018-11-13T10:44:52.371Z,100223.42
2018-11-13T10:47:20.563Z,100221.82
2018-11-13T10:49:48.809Z,100224.38
2018-11-13T10:52:17.001Z,100221.92
2018-11-13T10:54:45.308Z,100231.23
2018-11-13T10:57:14.023Z,100228.17
2018-11-13T10:59:42.247Z,100225.41
2018-11-13T11:02:15.818Z,100227.44
2018-11-13T11:04:47.746Z,100232.75
2018-11-13T11:07:15.950Z,100226.67
2018-11-13T11:09:44.719Z,100238.08
2018-11-13T11:12:13.005Z,100249.42
2018-11-13T11:14:41.190Z,100251.78
2018-11-13T11:17:09.767Z,100253.59
2018-11-13T11:19:38.037Z,100249.47
2018-11-13T11:22:06.202Z,100252.00
2018-11-13T11:24:34.388Z,100249.53
2018-11-13T11:27:02.606Z,100250.29
2018-11-13T11:29:30.879Z,100244.94
2018-11-13T11:31:59.083Z,100238.95
2018-11-13T11:34:27.308Z,100234.59
2018-11-13T11:36:55.495Z,100247.03
2018-11-13T11:39:23.694Z,100249.52
2018-11-13T11:41:51.924Z,100252.25
2018-11-13T11:44:20.211Z,100254.71
2018-11-13T11:46:48.400Z,100250.55
2018-11-13T11:49:16.634Z,100258.84
2018-11-13T11:51:44.847Z,100259.10
2018-11-13T11:54:13.049Z,100253.30
2018-11-13T11:56:41.468Z,100256.08
2018-11-13T11:59:09.795Z,100260.19
2018-11-13T12:01:38.209Z,100260.65
2018-11-13T12:04:06.645Z,100269.96
2018-11-13T12:06:34.947Z,100272.43
2018-11-13T12:09:03.380Z,100285.56
2018-11-13T12:11:31.762Z,100272.38
2018-11-13T12:14:00.183Z,100278.44
2018-11-13T12:16:28.533Z,100276.92
2018-11-13T12:18:56.828Z,100280.67
2018-11-13T12:21:25.111Z,100283.02
2018-11-13T12:23:53.767Z,100280.09
2018-11-13T12:26:22.600Z,100283.27
2018-11-13T12:28:50.796Z,100284.03
2018-11-13T12:31:19.207Z,100280.69
2018-11-13T12:33:47.732Z,100290.67
2018-11-13T12:36:15.928Z,100284.81
2018-11-13T12:38:44.888Z,100289.94
2018-11-13T12:41:13.107Z,100291.37
2018-11-13T12:43:41.312Z,100294.59
2018-11-13T12:46:09.508Z,100298.23
2018-11-13T12:48:37.829Z,100296.22
2018-11-13T12:51:07.099Z,100297.75
2018-11-13T12:53:36.291Z,100294.83
2018-11-13T12:56:04.704Z,100281.77
2018-11-13T12:58:33.261Z,100296.23
2018-11-13T13:01:02.969Z,100290.14
2018-11-13T13:03:31.162Z,100296.60
2018-11-13T13:05:59.347Z,100290.73
2018-11-13T13:08:27.599Z,100291.68
2018-11-13T13:10:55.776Z,100301.00
2018-11-13T13:13:23.978Z,100302.70
2018-11-13T13:15:52.216Z,100301.56
2018-11-13T13:18:20.412Z,100299.38
2018-11-13T13:20:48.600Z,100296.69
2018-11-13T13:23:16.922Z,100295.92
2018-11-13T13:25:45.189Z,100293.73
2018-11-13T13:28:13.431Z,100293.75
2018-11-13T13:30:42.691Z,100299.16
2018-11-13T13:33:11.353Z,100294.59
2018-11-13T13:35:51.055Z,100303.95
2018-11-13T13:38:19.276Z,100305.56
2018-11-13T13:40:48.799Z,100302.06
2018-11-13T13:43:22.596Z,100308.42
2018-11-13T13:45:51.078Z,100306.62
2018-11-13T13:48:19.991Z,100305.95
2018-11-13T13:50:48.340Z,100307.55
2018-11-13T13:53:17.456Z,100310.52
2018-11-13T13:55:46.172Z,100305.09
2018-11-13T13:58:15.128Z,100310.99
2018-11-13T14:00:43.512Z,100312.92
2018-11-13T14:03:12.408Z,100314.31
2018-11-13T14:05:41.724Z,100313.08
2018-11-13T14:08:10.903Z,100315.95
2018-11-13T14:10:39.107Z,100322.70
2018-11-13T14:13:07.582Z,100318.81
2018-11-13T14:15:35.900Z,100322.81
2018-11-13T14:18:04.024Z,100323.67
2018-11-13T14:20:35.243Z,100327.74
2018-11-13T14:23:03.463Z,100327.47
2018-11-13T14:25:31.790Z,100334.14
2018-11-13T14:28:00.195Z,100335.73
2018-11-13T14:30:30.284Z,100340.60
2018-11-13T14:33:01.246Z,100336.97
2018-11-13T14:35:29.519Z,100341.34
2018-11-13T14:37:57.991Z,100352.25
2018-11-13T14:40:29.582Z,100351.77
2018-11-13T14:42:58.011Z,100356.12
2018-11-13T14:45:26.699Z,100359.13
2018-11-13T14:47:55.015Z,100363.39
2018-11-13T14:50:24.585Z,100367.13
2018-11-13T14:52:53.163Z,100376.96
2018-11-13T14:55:24.590Z,100378.47
2018-11-13T14:57:53.204Z,100377.75
2018-11-13T15:00:22.816Z,100383.84
2018-11-13T15:02:51.996Z,100384.72
2018-11-13T15:05:21.119Z,100386.51
2018-11-13T15:07:50.566Z,100389.78
2018-11-13T15:10:39.690Z,100392.73
2018-11-13T15:13:08.451Z,100393.22
2018-11-13T15:15:36.657Z,100400.50
2018-11-13T15:18:05.248Z,100401.49
2018-11-13T15:20:33.454Z,100402.33
2018-11-13T15:23:01.739Z,100405.70
2018-11-13T15:25:30.447Z,100405.08
2018-11-13T15:27:58.638Z,100412.44
2018-11-13T15:30:29.364Z,100405.51
2018-11-13T15:33:02.221Z,100412.51
2018-11-13T15:35:31.568Z,100412.73
2018-11-13T15:37:59.763Z,100420.36
2018-11-13T15:40:30.135Z,100423.75
2018-11-13T15:42:58.384Z,100425.86
2018-11-13T15:45:26.655Z,100432.38
2018-11-13T15:47:55.844Z,100427.92
2018-11-13T15:50:25.323Z,100434.25
2018-11-13T15:52:53.584Z,100438.56
2018-11-13T15:55:23.031Z,100442.18
2018-11-13T15:57:51.390Z,100454.64
2018-11-13T16:00:26.042Z,100459.45
2018-11-13T16:02:54.820Z,100467.63
2018-11-13T16:05:29.566Z,100470.41
2018-11-13T16:07:58.790Z,100467.37
2018-11-13T16:10:27.036Z,100473.73
2018-11-13T16:12:55.379Z,100476.78
2018-11-13T16:15:24.443Z,100473.94
2018-11-13T16:17:53.409Z,100479.19
2018-11-13T16:20:22.616Z,100481.06
2018-11-13T16:22:50.819Z,100485.28
2018-11-13T16:25:19.026Z,100483.60
2018-11-13T16:27:47.228Z,100480.17
2018-11-13T16:30:18.656Z,100483.11
2018-11-13T16:32:47.583Z,100483.05
2018-11-13T16:35:16.848Z,100491.20
2018-11-13T16:37:46.660Z,100497.64
2018-11-13T16:40:18.123Z,100505.88
2018-11-13T16:42:47.012Z,100502.85
2018-11-13T16:45:16.394Z,100513.94
2018-11-13T16:47:44.890Z,100511.63
2018-11-13T16:50:30.823Z,100515.93
2018-11-13T16:52:59.398Z,100512.56
2018-11-13T16:55:32.999Z,100524.14
2018-11-13T16:58:02.528Z,100520.04
2018-11-13T17:00:30.905Z,100523.52
2018-11-13T17:02:59.156Z,100532.69
2018-11-13T17:05:29.073Z,100527.63
2018-11-13T17:07:57.196Z,100528.54
2018-11-13T17:10:26.635Z,100526.06
2018-11-13T17:12:55.232Z,100524.03
2018-11-13T17:15:24.538Z,100531.03
2018-11-13T17:17:53.622Z,100535.69
2018-11-13T17:20:22.054Z,100535.59
2018-11-13T17:22:50.570Z,100537.12
2018-11-13T17:25:20.187Z,100537.03
2018-11-13T17:27:49.640Z,100544.77
2018-11-13T17:30:22.158Z,100540.95
2018-11-13T17:32:51.063Z,100541.40
2018-11-13T17:35:21.372Z,100544.27
2018-11-13T17:37:50.312Z,100544.56
2018-11-13T17:40:20.052Z,100548.30
2018-11-13T17:42:49.066Z,100551.79
2018-11-13T17:45:34.671Z,100555.37
2018-11-13T17:48:04.990Z,100549.88
2018-11-13T17:50:36.343Z,100556.14
2018-11-13T17:53:05.242Z,100553.67
2018-11-13T17:55:33.446Z,100560.78
2018-11-13T17:58:03.136Z,100560.80
2018-11-13T18:00:34.708Z,100564.95
2018-11-13T18:03:03.662Z,100564.02
2018-11-13T18:05:32.225Z,100556.95
2018-11-13T18:08:01.349Z,100561.09
2018-11-13T18:10:30.319Z,100567.69
2018-11-13T18:12:59.706Z,100566.98
2018-11-13T18:15:28.694Z,100563.93
2018-11-13T18:17:56.932Z,100570.54
2018-11-13T18:20:26.515Z,100575.08
2018-11-13T18:22:54.702Z,100576.92
2018-11-13T18:25:22.899Z,100575.33
2018-11-13T18:27:52.526Z,100575.52
2018-11-13T18:30:23.129Z,100578.23
2018-11-13T18:32:51.542Z,100571.50
2018-11-13T18:35:21.454Z,100575.80
2018-11-13T18:37:50.888Z,100581.41
2018-11-13T18:40:20.063Z,100587.13
2018-11-13T18:42:49.276Z,100582.36
2018-11-13T18:45:20.736Z,100584.55
2018-11-13T18:47:49.024Z,100592.41
2018-11-13T18:50:27.081Z,100590.95
2018-11-13T18:52:55.323Z,100596.37
2018-11-13T18:55:23.656Z,100595.95
2018-11-13T18:57:52.294Z,100599.59
2018-11-13T19:00:22.046Z,100605.27
2018-11-13T19:02:50.247Z,100602.55
2018-11-13T19:05:19.296Z,100602.00
2018-11-13T19:07:47.495Z,100603.13
2018-11-13T19:10:50.338Z,100604.94
2018-11-13T19:13:21.001Z,100612.58
2018-11-13T19:15:50.959Z,100609.21
2018-11-13T19:18:20.623Z,100610.64
2018-11-13T19:20:48.832Z,100606.06
2018-11-13T19:23:17.278Z,100609.38
2018-11-13T19:25:46.518Z,100611.23
2018-11-13T19:28:15.038Z,100611.81
2018-11-13T19:30:42.941Z,100609.72
2018-11-13T19:33:11.228Z,100610.73
2018-11-13T19:35:39.614Z,100611.61
2018-11-13T19:38:08.562Z,100612.41
2018-11-13T19:40:37.039Z,100621.31
2018-11-13T19:43:06.934Z,100624.19
2018-11-13T19:45:38.388Z,100628.22
2018-11-13T19:48:06.574Z,100627.88
2018-11-13T19:50:35.891Z,100632.27
2018-11-13T19:53:04.223Z,100629.89
2018-11-13T19:55:32.851Z,100630.44
2018-11-13T19:58:01.099Z,100622.15
2018-11-13T20:00:30.555Z,100629.88
2018-11-13T20:03:00.844Z,100631.08
2018-11-13T20:05:30.662Z,100626.87
2018-11-13T20:07:58.907Z,100637.02
2018-11-13T20:10:29.370Z,100637.50
2018-11-13T20:12:58.887Z,100640.12
2018-11-13T20:15:27.852Z,100637.63
2018-11-13T20:17:56.040Z,100637.36
2018-11-13T20:20:25.667Z,100637.36
2018-11-13T20:22:54.319Z,100640.08
2018-11-13T20:25:24.549Z,100638.14
2018-11-13T20:27:53.844Z,100638.47
2018-11-13T20:30:24.371Z,100639.83
2018-11-13T20:32:52.611Z,100641.14
2018-11-13T20:35:20.852Z,100638.91
2018-11-13T20:37:49.811Z,100640.74
2018-11-13T20:40:19.423Z,100640.83
2018-11-13T20:42:49.757Z,100651.78
2018-11-13T20:45:18.062Z,100648.35
2018-11-13T20:47:46.255Z,100652.03
2018-11-13T20:50:16.208Z,100649.19
2018-11-13T20:52:44.603Z,100649.01
2018-11-13T20:55:13.082Z,100637.30
2018-11-13T20:57:41.303Z,100639.08
2018-11-13T21:00:14.531Z,100642.55
2018-11-13T21:02:42.936Z,100645.91
2018-11-13T21:05:11.136Z,100644.05
2018-11-13T21:07:39.431Z,100641.38
2018-11-13T21:10:11.122Z,100639.56
2018-11-13T21:12:39.603Z,100645.80
2018-11-13T21:15:09.841Z,100647.14
2018-11-13T21:17:38.920Z,100645.84
2018-11-13T21:20:09.809Z,100652.20
2018-11-13T21:22:38.234Z,100654.50
2018-11-13T21:25:07.862Z,100649.28
2018-11-13T21:27:36.033Z,100654.53
2018-11-13T21:30:06.025Z,100649.31
2018-11-13T21:32:34.923Z,100657.06
2018-11-13T21:35:03.120Z,100655.74
2018-11-13T21:37:31.430Z,100657.06
2018-11-13T21:39:59.956Z,100658.27
2018-11-13T21:42:28.144Z,100656.45
2018-11-13T21:44:56.354Z,100650.64
2018-11-13T21:47:24.568Z,100637.30
2018-11-13T21:49:52.854Z,100643.39
2018-11-13T21:52:21.339Z,100646.56
2018-11-13T21:54:50.323Z,100655.75
2018-11-13T21:57:22.672Z,100651.38
2018-11-13T21:59:50.877Z,100653.31
2018-11-13T22:02:19.091Z,100654.91
2018-11-13T22:04:48.242Z,100648.64
2018-11-13T22:07:16.633Z,100648.86
2018-11-13T22:09:44.899Z,100641.82
2018-11-13T22:12:13.210Z,100633.10
2018-11-13T22:14:41.528Z,100639.08
2018-11-13T22:17:09.725Z,100642.52
2018-11-13T22:19:38.074Z,100647.37
2018-11-13T22:22:06.372Z,100650.80
2018-11-13T22:24:34.783Z,100653.78
2018-11-13T22:27:03.298Z,100648.17
2018-11-13T22:29:31.539Z,100654.22
2018-11-13T22:32:00.187Z,100655.86
2018-11-13T22:34:28.389Z,100658.53
2018-11-13T22:36:56.610Z,100665.06
2018-11-13T22:39:25.330Z,100661.95
2018-11-13T22:41:53.531Z,100665.86
2018-11-13T22:44:21.835Z,100662.64
2018-11-13T22:46:50.104Z,100657.71
2018-11-13T22:49:18.504Z,100659.62
2018-11-13T22:51:47.167Z,100672.64
2018-11-13T22:54:15.852Z,100668.73
2018-11-13T22:56:44.206Z,100668.57
2018-11-13T22:59:12.624Z,100666.41
2018-11-13T23:01:40.961Z,100665.94
2018-11-13T23:04:09.286Z,100669.84
2018-11-13T23:06:37.629Z,100664.93
2018-11-13T23:09:08.994Z,100662.66
2018-11-13T23:11:37.262Z,100673.02
2018-11-13T23:14:06.937Z,100678.27
2018-11-13T23:16:35.446Z,100677.17
2018-11-13T23:19:03.930Z,100678.44
2018-11-13T23:21:32.144Z,100679.31
2018-11-13T23:24:00.834Z,100671.42
2018-11-13T23:26:29.140Z,100674.33
2018-11-13T23:28:57.643Z,100671.60
2018-11-13T23:31:25.905Z,100670.20
2018-11-13T23:33:54.554Z,100670.97
2018-11-13T23:36:22.491Z,100660.84
2018-11-13T23:38:51.039Z,100672.59
2018-11-13T23:41:19.291Z,100663.92
2018-11-13T23:43:47.513Z,100662.57
2018-11-13T23:46:15.811Z,100673.14
2018-11-13T23:48:44.218Z,100674.02
2018-11-13T23:51:12.419Z,100675.98
2018-11-13T23:53:40.744Z,100673.31
2018-11-13T23:56:08.959Z,100670.55
2018-11-13T23:58:37.450Z,100672.96
